Time;durP1;ratioP1;P1;durP2;ratioP2;P2;SDS_P1;SDS_P2;PMS_P1;PMS_P2;Temp;Humidity;BMP_temperature;BMP_pressure;BME280_temperature;BME280_humidity;BME280_pressure;Samples;Min_cycle;Max_cycle;Signal;HPM_P1;HPM_P2
2023/06/03 00:02:25;;;;;;;9.27;8.77;;;17.40;93.10;;;;;;4906334;29;20454;-82
2023/06/03 00:04:53;;;;;;;11.17;10.17;;;17.40;93.80;;;;;;4906904;29;20462;-82
2023/06/03 00:07:23;;;;;;;9.70;9.20;;;17.40;94.00;;;;;;4908027;29;20462;-81
2023/06/03 00:09:51;;;;;;;9.43;8.80;;;17.40;94.00;;;;;;4906508;29;20478;-82
2023/06/03 00:12:20;;;;;;;10.53;9.53;;;17.40;94.10;;;;;;4908658;29;20482;-82
2023/06/03 00:14:48;;;;;;;10.77;9.87;;;17.30;98.00;;;;;;4908132;29;20460;-82
2023/06/03 00:17:16;;;;;;;9.90;9.10;;;17.30;95.90;;;;;;4907068;29;20454;-82
2023/06/03 00:19:45;;;;;;;10.17;9.30;;;17.20;94.50;;;;;;4907649;29;21149;-82
2023/06/03 00:22:13;;;;;;;9.47;8.87;;;17.20;94.90;;;;;;4908083;29;20462;-82
2023/06/03 00:24:42;;;;;;;9.60;8.90;;;17.20;93.90;;;;;;4908206;29;20486;-81
2023/06/03 00:27:10;;;;;;;10.17;9.30;;;17.10;93.90;;;;;;4904186;29;20465;-82
2023/06/03 00:29:38;;;;;;;9.40;8.80;;;17.10;94.10;;;;;;4908131;29;20458;-82
2023/06/03 00:32:07;;;;;;;10.23;9.37;;;17.10;94.40;;;;;;4907733;29;20593;-82
2023/06/03 00:34:35;;;;;;;9.67;9.07;;;17.10;94.80;;;;;;4907487;29;20473;-82
2023/06/03 00:37:03;;;;;;;10.83;9.97;;;17.10;95.20;;;;;;4907604;29;20465;-82
2023/06/03 00:39:31;;;;;;;9.47;8.70;;;17.00;95.10;;;;;;4908325;29;20457;-82
2023/06/03 00:42:01;;;;;;;9.73;8.87;;;17.00;95.20;;;;;;4907828;29;20453;-82
2023/06/03 00:44:29;;;;;;;10.20;9.40;;;16.90;94.90;;;;;;4908407;29;20576;-82
2023/06/03 00:46:57;;;;;;;9.30;8.80;;;16.90;95.10;;;;;;4907539;29;20461;-82
2023/06/03 00:49:25;;;;;;;9.27;8.77;;;16.90;95.70;;;;;;4907886;29;20466;-81
2023/06/03 00:51:53;;;;;;;9.97;9.13;;;16.80;95.50;;;;;;4908447;29;20485;-82
2023/06/03 00:54:21;;;;;;;9.20;8.70;;;16.80;99.50;;;;;;4907284;29;20492;-82
2023/06/03 00:56:50;;;;;;;10.47;9.57;;;16.70;96.40;;;;;;4907315;29;20465;-82
2023/06/03 00:59:21;;;;;;;10.20;9.50;;;16.70;97.70;;;;;;4910087;29;20461;-82
2023/06/03 01:01:49;;;;;;;10.07;9.20;;;16.70;97.70;;;;;;4911555;29;20469;-82
2023/06/03 01:04:25;;;;;;;9.53;8.83;;;16.60;97.20;;;;;;4910765;29;20478;-82
2023/06/03 01:07:07;;;;;;;10.00;9.20;;;16.60;98.30;;;;;;4910883;29;20460;-82
2023/06/03 01:09:47;;;;;;;10.20;9.50;;;16.60;98.40;;;;;;4910909;29;20523;-82
2023/06/03 01:12:25;;;;;;;9.37;8.80;;;16.60;98.70;;;;;;4911693;29;20557;-82
2023/06/03 01:14:57;;;;;;;9.50;8.70;;;16.60;98.90;;;;;;4910942;29;20458;-82
2023/06/03 01:17:28;;;;;;;9.73;9.03;;;16.60;99.10;;;;;;4910726;29;20465;-81
2023/06/03 01:19:58;;;;;;;9.27;8.60;;;16.60;99.10;;;;;;4911446;29;20464;-82
2023/06/03 01:22:28;;;;;;;10.07;9.00;;;16.50;99.00;;;;;;4912652;29;20445;-83
2023/06/03 01:25:05;;;;;;;10.07;9.37;;;16.50;99.00;;;;;;4924574;29;20494;-82
2023/06/03 01:27:33;;;;;;;8.87;8.47;;;16.40;99.30;;;;;;4910177;29;20453;-82
2023/06/03 01:30:01;;;;;;;9.10;8.30;;;16.40;99.00;;;;;;4911374;29;20467;-82
2023/06/03 01:32:32;;;;;;;9.73;9.23;;;16.40;99.10;;;;;;4909227;29;20495;-82
2023/06/03 01:35:00;;;;;;;11.00;9.70;;;16.40;99.00;;;;;;4912307;29;20476;-82
2023/06/03 01:37:29;;;;;;;11.93;8.60;;;16.30;99.20;;;;;;4910810;29;20438;-82
2023/06/03 01:39:57;;;;;;;9.67;9.07;;;16.30;99.90;;;;;;4910453;29;20465;-81
2023/06/03 01:42:27;;;;;;;10.13;9.33;;;16.20;99.90;;;;;;4924329;29;20457;-81
2023/06/03 01:44:57;;;;;;;9.93;9.17;;;16.20;99.90;;;;;;4909916;29;20457;-82
2023/06/03 01:47:26;;;;;;;9.40;8.80;;;16.10;99.90;;;;;;4911163;29;20892;-82
2023/06/03 01:49:54;;;;;;;9.17;8.50;;;16.10;99.90;;;;;;4909901;29;20452;-82
2023/06/03 01:52:22;;;;;;;10.03;8.50;;;16.10;99.90;;;;;;4909558;29;20482;-81
2023/06/03 01:54:50;;;;;;;14.33;9.77;;;16.10;99.90;;;;;;4910498;29;20541;-82
2023/06/03 01:57:18;;;;;;;9.80;9.10;;;16.10;99.90;;;;;;4925186;29;21330;-82
2023/06/03 01:59:48;;;;;;;9.90;8.93;;;16.10;99.90;;;;;;4908377;29;20452;-83
2023/06/03 02:02:16;;;;;;;10.60;9.63;;;16.00;99.90;;;;;;4909901;29;20460;-82
2023/06/03 02:04:44;;;;;;;9.77;8.97;;;16.00;99.90;;;;;;4910061;29;20489;-82
2023/06/03 02:07:14;;;;;;;10.70;9.70;;;16.00;99.90;;;;;;4911115;29;20560;-82
2023/06/03 02:09:42;;;;;;;10.37;9.47;;;16.10;99.90;;;;;;4908249;29;20464;-82
2023/06/03 02:12:10;;;;;;;9.87;9.20;;;16.10;99.90;;;;;;4910126;29;20489;-82
2023/06/03 02:14:39;;;;;;;10.27;9.47;;;16.10;99.90;;;;;;4909646;29;21105;-82
2023/06/03 02:17:11;;;;;;;10.43;9.60;;;16.10;99.90;;;;;;4909727;29;20524;-82
2023/06/03 02:19:39;;;;;;;9.70;8.90;;;16.00;99.90;;;;;;4908853;29;20465;-82
2023/06/03 02:22:07;;;;;;;10.47;9.67;;;16.00;99.90;;;;;;4910320;29;20561;-82
2023/06/03 02:24:38;;;;;;;11.03;10.23;;;16.00;99.90;;;;;;4909427;29;20549;-82
2023/06/03 02:27:08;;;;;;;10.30;9.50;;;15.90;99.90;;;;;;4908813;29;20624;-83
2023/06/03 02:29:37;;;;;;;9.70;9.03;;;15.90;99.90;;;;;;4900074;29;20501;-82
2023/06/03 02:32:05;;;;;;;10.67;9.77;;;15.80;99.90;;;;;;4909400;29;20492;-82
2023/06/03 02:34:35;;;;;;;9.90;9.20;;;15.80;99.90;;;;;;4910029;29;20869;-82
2023/06/03 02:37:04;;;;;;;9.83;9.17;;;15.70;99.90;;;;;;4909981;29;20464;-82
2023/06/03 02:39:32;;;;;;;10.27;9.50;;;15.70;99.90;;;;;;4909759;29;20510;-82
2023/06/03 02:42:00;;;;;;;10.80;9.90;;;15.70;99.90;;;;;;4909708;29;20465;-82
2023/06/03 02:44:28;;;;;;;9.67;8.90;;;15.70;99.90;;;;;;4908715;29;20537;-82
2023/06/03 02:46:56;;;;;;;11.37;10.37;;;15.60;99.90;;;;;;4906320;29;21050;-82
2023/06/03 02:49:24;;;;;;;10.13;9.33;;;15.60;99.90;;;;;;4908425;29;20540;-82
2023/06/03 02:51:55;;;;;;;10.67;9.87;;;15.50;99.90;;;;;;4923410;29;20461;-83
2023/06/03 02:54:23;;;;;;;11.33;10.47;;;15.60;99.90;;;;;;4908075;29;20487;-82
2023/06/03 02:56:51;;;;;;;10.70;9.80;;;15.60;99.90;;;;;;4907451;29;20564;-82
2023/06/03 02:59:19;;;;;;;10.13;9.63;;;15.60;99.90;;;;;;4907420;29;20459;-82
2023/06/03 03:01:47;;;;;;;10.30;9.53;;;15.60;99.90;;;;;;4909541;29;20456;-83
2023/06/03 03:04:16;;;;;;;10.63;9.77;;;15.60;99.90;;;;;;4909361;29;20812;-82
2023/06/03 03:06:44;;;;;;;10.37;9.70;;;15.60;99.90;;;;;;4905679;29;20467;-82
2023/06/03 03:09:14;;;;;;;10.20;9.43;;;15.60;99.90;;;;;;4907131;29;20475;-83
2023/06/03 03:11:42;;;;;;;10.30;9.40;;;15.50;99.90;;;;;;4906330;29;20888;-82
2023/06/03 03:14:10;;;;;;;9.70;8.97;;;15.50;99.90;;;;;;4923409;29;20500;-82
2023/06/03 03:16:39;;;;;;;11.07;9.67;;;15.50;99.90;;;;;;4914014;29;20452;-82
2023/06/03 03:19:09;;;;;;;10.30;9.40;;;15.50;99.90;;;;;;4913854;29;20469;-81
2023/06/03 03:21:38;;;;;;;10.83;9.30;;;15.40;99.90;;;;;;4912628;29;20459;-82
2023/06/03 03:24:06;;;;;;;13.60;9.40;;;15.50;99.90;;;;;;4912632;29;20547;-82
2023/06/03 03:26:36;;;;;;;10.00;9.20;;;15.50;99.90;;;;;;4912539;29;20493;-82
2023/06/03 03:29:06;;;;;;;10.40;9.40;;;15.40;99.90;;;;;;4912732;29;20457;-81
2023/06/03 03:31:34;;;;;;;9.73;9.13;;;15.40;99.90;;;;;;4912483;29;20464;-82
2023/06/03 03:34:04;;;;;;;10.23;9.13;;;15.40;99.90;;;;;;4910463;29;20507;-82
2023/06/03 03:36:36;;;;;;;10.10;9.50;;;15.40;99.90;;;;;;4912041;29;20457;-82
2023/06/03 03:39:06;;;;;;;10.00;9.20;;;15.50;99.90;;;;;;4912420;29;20465;-81
2023/06/03 03:41:36;;;;;;;10.07;9.27;;;15.50;99.90;;;;;;4911057;29;20453;-83
2023/06/03 03:44:04;;;;;;;9.80;9.20;;;15.40;99.90;;;;;;4910399;29;20580;-82
2023/06/03 03:46:33;;;;;;;10.00;9.20;;;15.40;99.90;;;;;;4911746;29;20551;-84
2023/06/03 03:49:03;;;;;;;10.07;9.27;;;15.40;99.90;;;;;;4909786;29;21166;-82
2023/06/03 03:51:35;;;;;;;10.27;9.67;;;15.40;99.90;;;;;;4911835;29;20443;-82
2023/06/03 03:54:04;;;;;;;10.47;8.90;;;15.40;99.90;;;;;;4910826;29;20520;-81
2023/06/03 03:56:34;;;;;;;9.13;8.63;;;15.40;99.90;;;;;;4911302;29;20467;-82
2023/06/03 03:59:05;;;;;;;9.13;8.63;;;15.40;99.90;;;;;;4910118;29;21001;-82
2023/06/03 04:01:39;;;;;;;9.73;9.03;;;15.40;99.90;;;;;;4907903;29;20495;-82
2023/06/03 04:04:11;;;;;;;10.17;9.37;;;15.40;99.90;;;;;;4911397;29;20498;-82
2023/06/03 04:06:39;;;;;;;9.53;8.90;;;15.50;99.90;;;;;;4909276;29;20528;-82
2023/06/03 04:09:10;;;;;;;10.23;9.40;;;15.40;99.90;;;;;;4909435;29;20778;-82
2023/06/03 04:11:39;;;;;;;10.50;9.70;;;15.40;99.90;;;;;;4907849;29;20464;-81
2023/06/03 04:14:11;;;;;;;9.10;8.50;;;15.40;99.90;;;;;;4908134;29;20915;-82
2023/06/03 04:16:57;;;;;;;9.10;8.20;;;15.40;99.90;;;;;;4907887;29;20540;-83
2023/06/03 04:19:32;;;;;;;10.07;9.20;;;15.50;99.90;;;;;;4907349;29;20556;-82
2023/06/03 04:22:01;;;;;;;9.40;8.80;;;15.50;99.90;;;;;;4907801;29;21108;-82
2023/06/03 04:24:30;;;;;;;10.43;9.30;;;15.50;99.90;;;;;;4908455;29;20827;-82
2023/06/03 04:26:58;;;;;;;9.60;9.00;;;15.50;99.90;;;;;;4909088;29;20517;-82
2023/06/03 04:29:28;;;;;;;10.60;9.40;;;15.50;99.90;;;;;;4908240;29;20974;-82
2023/06/03 04:31:56;;;;;;;9.77;9.17;;;15.50;99.90;;;;;;4908408;29;21459;-82
2023/06/03 04:34:28;;;;;;;10.37;9.40;;;15.60;99.90;;;;;;4912406;29;20851;-82
2023/06/03 04:36:57;;;;;;;12.07;9.10;;;15.50;99.90;;;;;;4912660;29;20471;-81
2023/06/03 04:39:25;;;;;;;10.03;9.43;;;15.40;99.90;;;;;;4911279;29;20460;-81
2023/06/03 04:41:55;;;;;;;10.10;9.17;;;15.50;99.90;;;;;;4912376;29;20466;-82
2023/06/03 04:44:23;;;;;;;10.50;9.60;;;15.50;99.90;;;;;;4912393;29;20487;-82
2023/06/03 04:46:52;;;;;;;10.67;9.97;;;15.50;99.90;;;;;;4926790;29;20461;-82
2023/06/03 04:49:20;;;;;;;10.33;9.53;;;15.60;99.90;;;;;;4909751;29;20513;-81
2023/06/03 04:51:48;;;;;;;11.00;10.13;;;15.60;99.90;;;;;;4912263;29;20475;-82
2023/06/03 04:54:18;;;;;;;10.67;9.97;;;15.50;99.90;;;;;;4910952;29;20502;-83
2023/06/03 04:56:47;;;;;;;10.73;10.03;;;15.60;99.90;;;;;;4912130;29;20472;-81
2023/06/03 04:59:16;;;;;;;10.77;9.67;;;15.60;99.90;;;;;;4911419;29;20512;-81
2023/06/03 05:01:44;;;;;;;10.97;10.07;;;15.60;99.90;;;;;;4912621;29;21362;-82
2023/06/03 05:04:19;;;;;;;10.40;9.70;;;15.60;99.90;;;;;;4910906;29;20477;-82
2023/06/03 05:06:48;;;;;;;9.93;9.13;;;15.70;99.90;;;;;;4910830;29;20843;-82
2023/06/03 05:09:17;;;;;;;10.63;9.90;;;15.80;99.90;;;;;;4910854;29;20502;-82
2023/06/03 05:11:45;;;;;;;10.60;9.80;;;15.80;99.90;;;;;;4912209;29;20472;-83
2023/06/03 05:14:13;;;;;;;11.70;9.53;;;15.80;99.90;;;;;;4912045;29;20583;-81
2023/06/03 05:16:41;;;;;;;11.37;10.37;;;15.80;99.90;;;;;;4911507;29;20458;-81
2023/06/03 05:19:09;;;;;;;11.27;10.23;;;15.70;99.90;;;;;;4912054;29;20468;-82
2023/06/03 05:21:38;;;;;;;9.60;9.00;;;15.80;99.90;;;;;;4911026;29;20465;-81
2023/06/03 05:24:07;;;;;;;10.03;9.33;;;15.80;99.90;;;;;;4911170;29;21042;-82
2023/06/03 05:26:35;;;;;;;10.13;9.57;;;15.90;99.90;;;;;;4909251;29;21082;-82
2023/06/03 05:29:03;;;;;;;10.07;9.40;;;16.00;99.90;;;;;;4911104;29;20460;-82
2023/06/03 05:31:31;;;;;;;12.03;9.83;;;16.00;99.90;;;;;;4910471;29;20523;-82
2023/06/03 05:33:59;;;;;;;10.33;9.50;;;16.00;99.90;;;;;;4911085;29;20529;-82
2023/06/03 05:36:27;;;;;;;10.30;9.70;;;16.00;99.90;;;;;;4912154;29;20834;-82
2023/06/03 05:38:57;;;;;;;10.13;9.53;;;16.10;99.90;;;;;;4911197;29;20450;-82
2023/06/03 05:41:26;;;;;;;10.47;9.67;;;16.10;99.90;;;;;;4911619;29;20457;-83
2023/06/03 05:43:54;;;;;;;10.17;9.23;;;16.20;99.90;;;;;;4907323;29;20483;-82
2023/06/03 05:46:22;;;;;;;11.20;9.97;;;16.30;99.90;;;;;;4909644;29;20520;-82
2023/06/03 05:48:51;;;;;;;9.70;9.20;;;16.40;99.90;;;;;;4910129;29;20469;-81
2023/06/03 05:51:19;;;;;;;10.17;9.57;;;16.40;99.90;;;;;;4904056;29;20500;-82
2023/06/03 05:53:47;;;;;;;11.00;10.20;;;16.40;99.90;;;;;;4910307;29;20603;-82
2023/06/03 05:56:16;;;;;;;10.87;9.77;;;16.50;99.90;;;;;;4910832;29;20469;-82
2023/06/03 05:58:45;;;;;;;10.97;9.97;;;16.50;99.90;;;;;;4908802;29;20466;-82
2023/06/03 06:01:13;;;;;;;11.77;10.77;;;16.60;99.90;;;;;;4909798;29;20458;-83
2023/06/03 06:03:41;;;;;;;12.40;11.57;;;16.60;99.90;;;;;;4910190;29;21186;-82
2023/06/03 06:06:10;;;;;;;10.40;9.70;;;16.70;99.90;;;;;;4911919;29;20549;-82
2023/06/03 06:08:38;;;;;;;10.77;10.07;;;16.70;99.90;;;;;;4910820;29;20952;-82
2023/06/03 06:11:06;;;;;;;11.53;10.50;;;16.80;99.90;;;;;;4910593;29;20454;-82
2023/06/03 06:13:36;;;;;;;11.90;10.73;;;16.80;99.90;;;;;;4909979;29;20907;-82
2023/06/03 06:16:05;;;;;;;11.87;10.73;;;16.80;99.90;;;;;;4910202;29;20485;-82
2023/06/03 06:18:33;;;;;;;12.10;11.00;;;16.90;99.90;;;;;;4909061;29;21125;-82
2023/06/03 06:21:02;;;;;;;10.70;10.07;;;16.90;99.90;;;;;;4910685;29;20465;-81
2023/06/03 06:23:30;;;;;;;11.13;10.43;;;17.00;99.90;;;;;;4910529;29;20861;-82
2023/06/03 06:25:58;;;;;;;10.70;9.90;;;17.20;99.90;;;;;;4910243;29;20458;-82
2023/06/03 06:28:28;;;;;;;11.83;11.20;;;17.20;99.90;;;;;;4909304;29;20465;-82
2023/06/03 06:31:02;;;;;;;10.93;10.20;;;17.30;99.90;;;;;;4908561;29;20458;-82
2023/06/03 06:33:35;;;;;;;11.10;10.43;;;17.30;99.90;;;;;;4909126;29;20474;-83
2023/06/03 06:36:12;;;;;;;11.57;10.70;;;17.40;99.90;;;;;;4907708;29;20486;-82
2023/06/03 06:38:41;;;;;;;12.40;11.10;;;17.50;99.90;;;;;;4909119;29;20459;-82
2023/06/03 06:41:13;;;;;;;11.37;10.87;;;17.60;99.90;;;;;;4906913;29;21299;-81
2023/06/03 06:43:41;;;;;;;12.90;11.90;;;17.70;99.90;;;;;;4908354;29;20481;-82
2023/06/03 06:46:11;;;;;;;13.20;12.40;;;17.80;99.90;;;;;;4902236;29;20470;-82
2023/06/03 06:48:40;;;;;;;11.83;10.90;;;17.90;99.90;;;;;;4908765;29;20450;-82
2023/06/03 06:51:08;;;;;;;12.53;11.50;;;18.00;99.90;;;;;;4908447;29;20454;-82
2023/06/03 06:53:37;;;;;;;12.07;11.30;;;18.10;99.90;;;;;;4909019;29;20492;-81
2023/06/03 06:56:07;;;;;;;11.33;10.73;;;18.10;99.90;;;;;;4925042;29;21019;-80
2023/06/03 06:58:37;;;;;;;12.40;11.50;;;18.20;99.90;;;;;;4910405;29;20458;-82
2023/06/03 07:01:10;;;;;;;12.20;11.23;;;18.20;99.90;;;;;;4906661;29;20462;-83
2023/06/03 07:03:38;;;;;;;12.27;11.50;;;18.30;99.90;;;;;;4906118;29;20597;-81
2023/06/03 07:06:07;;;;;;;14.80;13.60;;;18.10;99.90;;;;;;4907827;29;21007;-81
2023/06/03 07:08:35;;;;;;;13.47;12.70;;;18.20;99.90;;;;;;4907192;29;21217;-82
2023/06/03 07:11:04;;;;;;;13.67;12.97;;;18.30;99.90;;;;;;4907135;29;20561;-83
2023/06/03 07:13:33;;;;;;;13.83;13.03;;;18.40;99.90;;;;;;4905538;29;20493;-82
2023/06/03 07:16:02;;;;;;;12.50;11.80;;;18.40;99.90;;;;;;4906712;29;20832;-82
2023/06/03 07:18:33;;;;;;;13.23;12.50;;;18.40;99.90;;;;;;4907177;29;20514;-82
2023/06/03 07:21:02;;;;;;;13.30;12.50;;;18.40;99.90;;;;;;4906472;29;20468;-82
2023/06/03 07:23:31;;;;;;;12.97;12.17;;;18.40;99.90;;;;;;4922668;29;20472;-82
2023/06/03 07:25:59;;;;;;;13.63;12.43;;;18.40;99.90;;;;;;4907902;29;20458;-82
2023/06/03 07:28:30;;;;;;;12.53;11.77;;;18.60;99.90;;;;;;4907702;29;21327;-82
2023/06/03 07:31:00;;;;;;;13.90;12.53;;;18.70;99.90;;;;;;4906829;29;20577;-82
2023/06/03 07:33:30;;;;;;;12.90;12.10;;;18.80;99.90;;;;;;4905085;29;20471;-83
2023/06/03 07:36:02;;;;;;;13.97;12.90;;;18.80;99.90;;;;;;4909917;29;20485;-82
2023/06/03 07:39:02;;;;;;;12.77;12.07;;;18.80;99.90;;;;;;4909609;29;20525;-82
2023/06/03 07:41:37;;;;;;;13.43;12.83;;;18.90;99.90;;;;;;4911121;29;20469;-82
2023/06/03 07:44:07;;;;;;;14.47;13.30;;;18.90;99.90;;;;;;4912138;29;20581;-82
2023/06/03 07:46:40;;;;;;;13.90;13.00;;;18.80;99.90;;;;;;4908828;29;20952;-83
2023/06/03 07:49:11;;;;;;;13.17;12.50;;;18.90;99.90;;;;;;4907839;29;20474;-81
2023/06/03 07:51:46;;;;;;;13.53;12.70;;;18.80;99.90;;;;;;4908642;29;20497;-82
2023/06/03 07:54:15;;;;;;;12.70;12.10;;;18.80;99.90;;;;;;4906282;29;20477;-83
2023/06/03 07:56:43;;;;;;;12.97;12.10;;;18.90;99.90;;;;;;4907807;29;20477;-81
2023/06/03 07:59:12;;;;;;;12.63;12.03;;;18.90;99.90;;;;;;4908167;29;20446;-82
2023/06/03 08:01:42;;;;;;;13.40;12.60;;;19.00;99.90;;;;;;4906965;29;20465;-81
2023/06/03 08:04:28;;;;;;;13.53;12.40;;;19.10;99.90;;;;;;4907331;29;20505;-81
2023/06/03 08:07:00;;;;;;;14.00;13.30;;;19.10;99.90;;;;;;4907994;29;20449;-82
2023/06/03 08:09:30;;;;;;;14.80;13.90;;;19.10;99.90;;;;;;4907078;29;20489;-81
2023/06/03 08:11:59;;;;;;;13.30;12.47;;;19.30;99.90;;;;;;4907119;29;20890;-82
2023/06/03 08:14:30;;;;;;;13.90;13.10;;;19.30;99.90;;;;;;4909319;29;20485;-83
2023/06/03 08:17:03;;;;;;;14.20;13.37;;;19.30;99.90;;;;;;4907008;29;20473;-82
2023/06/03 08:19:31;;;;;;;14.10;13.20;;;19.40;99.90;;;;;;4908249;29;20498;-82
2023/06/03 08:22:01;;;;;;;14.70;13.50;;;19.40;99.90;;;;;;4906465;29;21218;-82
2023/06/03 08:24:29;;;;;;;13.80;13.10;;;19.50;99.90;;;;;;4907637;29;20983;-82
2023/06/03 08:26:57;;;;;;;14.37;13.47;;;19.60;99.90;;;;;;4907744;29;20454;-81
2023/06/03 08:29:25;;;;;;;15.47;14.33;;;19.60;99.90;;;;;;4905435;29;20476;-81
2023/06/03 08:31:53;;;;;;;13.90;13.00;;;19.70;99.90;;;;;;4906366;29;21003;-81
2023/06/03 08:34:23;;;;;;;15.13;13.93;;;19.70;99.90;;;;;;4906382;29;20493;-81
2023/06/03 08:36:51;;;;;;;14.20;13.30;;;19.70;99.90;;;;;;4906869;29;20483;-82
2023/06/03 08:39:21;;;;;;;15.40;14.50;;;19.80;99.90;;;;;;4904640;29;20461;-82
2023/06/03 08:41:54;;;;;;;14.00;13.40;;;19.80;99.90;;;;;;4908280;29;20801;-82
2023/06/03 08:44:32;;;;;;;14.97;14.23;;;19.80;99.90;;;;;;4901442;29;21209;-80
2023/06/03 08:47:10;;;;;;;16.47;15.40;;;19.90;99.90;;;;;;4905705;29;20465;-81
2023/06/03 08:49:46;;;;;;;15.40;14.50;;;19.90;99.90;;;;;;4906079;29;20457;-81
2023/06/03 08:52:14;;;;;;;15.57;14.10;;;20.00;99.90;;;;;;4907574;29;20466;-82
2023/06/03 08:54:44;;;;;;;15.07;14.20;;;20.00;99.90;;;;;;4908375;29;20485;-81
2023/06/03 08:57:19;;;;;;;15.00;14.00;;;20.10;99.90;;;;;;4909471;29;20470;-82
2023/06/03 08:59:51;;;;;;;15.67;14.57;;;20.20;99.90;;;;;;4907425;29;20509;-82
2023/06/03 09:02:19;;;;;;;15.13;14.13;;;20.20;99.90;;;;;;4908480;29;20446;-81
2023/06/03 09:04:49;;;;;;;15.97;14.67;;;20.20;99.90;;;;;;4910732;29;20933;-82
2023/06/03 09:07:20;;;;;;;15.60;14.60;;;20.30;99.90;;;;;;4907877;29;20482;-82
2023/06/03 09:09:51;;;;;;;14.20;13.50;;;20.30;99.90;;;;;;4906282;29;20844;-82
2023/06/03 09:12:20;;;;;;;14.23;13.47;;;20.40;99.90;;;;;;4907713;29;20505;-81
2023/06/03 09:14:48;;;;;;;16.07;15.17;;;20.40;99.90;;;;;;4907483;29;20478;-82
2023/06/03 09:17:16;;;;;;;14.93;14.13;;;20.50;99.90;;;;;;4907896;29;20488;-81
2023/06/03 09:19:45;;;;;;;16.13;14.77;;;20.70;99.90;;;;;;4908761;29;20474;-82
2023/06/03 09:22:14;;;;;;;16.30;15.50;;;20.70;99.90;;;;;;4909525;29;20469;-81
2023/06/03 09:24:42;;;;;;;15.40;14.40;;;20.70;99.90;;;;;;4910943;29;20481;-82
2023/06/03 09:27:12;;;;;;;15.83;14.90;;;20.80;99.90;;;;;;4909024;29;20476;-82
2023/06/03 09:29:41;;;;;;;15.60;14.73;;;20.80;99.90;;;;;;4911170;29;20530;-81
2023/06/03 09:32:09;;;;;;;15.67;14.63;;;20.90;99.90;;;;;;4910621;29;20836;-81
2023/06/03 09:34:37;;;;;;;15.00;14.10;;;20.90;99.90;;;;;;4911848;29;20498;-81
2023/06/03 09:37:10;;;;;;;16.73;15.77;;;21.00;99.90;;;;;;4909434;29;21153;-83
2023/06/03 09:39:39;;;;;;;16.60;15.67;;;21.00;99.90;;;;;;4911724;29;20461;-81
2023/06/03 09:42:08;;;;;;;16.53;15.73;;;21.10;99.90;;;;;;4911186;29;20480;-81
2023/06/03 09:44:42;;;;;;;15.70;14.77;;;21.10;99.90;;;;;;4909072;29;20474;-82
2023/06/03 09:47:11;;;;;;;17.13;15.97;;;21.20;99.90;;;;;;4910985;29;20524;-82
2023/06/03 09:49:40;;;;;;;16.53;15.40;;;21.20;99.90;;;;;;4909643;29;20493;-82
2023/06/03 09:52:11;;;;;;;16.77;15.80;;;21.30;99.90;;;;;;4911534;29;20458;-82
2023/06/03 09:54:41;;;;;;;17.57;16.57;;;21.30;99.90;;;;;;4909328;29;21356;-82
2023/06/03 09:57:11;;;;;;;16.50;15.50;;;21.40;99.90;;;;;;4911838;29;20488;-81
2023/06/03 09:59:44;;;;;;;16.40;15.50;;;21.40;99.90;;;;;;4910244;29;20466;-81
2023/06/03 10:02:12;;;;;;;16.83;15.73;;;21.40;99.90;;;;;;4910569;29;20458;-81
2023/06/03 10:04:42;;;;;;;16.57;15.60;;;21.50;99.90;;;;;;4910435;29;20861;-83
2023/06/03 10:07:12;;;;;;;16.57;15.67;;;21.50;99.90;;;;;;4908977;29;20481;-82
2023/06/03 10:09:41;;;;;;;17.33;16.17;;;21.50;99.90;;;;;;4908750;29;20972;-81
2023/06/03 10:12:10;;;;;;;17.30;16.40;;;21.50;99.90;;;;;;4908700;29;20465;-81
2023/06/03 10:14:47;;;;;;;17.93;16.63;;;21.60;99.90;;;;;;4909499;29;20482;-81
2023/06/03 10:17:17;;;;;;;17.87;16.77;;;21.70;99.90;;;;;;4910055;29;20492;-82
2023/06/03 10:19:47;;;;;;;17.13;16.03;;;21.80;99.90;;;;;;4909141;29;20690;-82
2023/06/03 10:22:18;;;;;;;17.67;16.57;;;22.00;99.90;;;;;;4908928;29;20971;-82
2023/06/03 10:24:47;;;;;;;17.43;16.63;;;22.10;99.90;;;;;;4908498;29;20607;-82
2023/06/03 10:27:17;;;;;;;17.50;16.10;;;22.10;99.90;;;;;;4908788;29;20450;-83
2023/06/03 10:29:47;;;;;;;17.83;16.83;;;22.20;99.90;;;;;;4908004;29;20462;-82
2023/06/03 10:32:16;;;;;;;17.50;16.50;;;22.20;99.90;;;;;;4920163;29;20454;-82
2023/06/03 10:34:47;;;;;;;16.97;16.13;;;22.20;99.90;;;;;;4907842;29;20501;-81
2023/06/03 10:37:16;;;;;;;17.67;16.23;;;22.30;99.90;;;;;;4908297;29;20489;-82
2023/06/03 10:39:45;;;;;;;17.10;15.83;;;22.30;99.90;;;;;;4922911;29;20464;-82
2023/06/03 10:42:14;;;;;;;17.33;16.43;;;22.30;99.90;;;;;;4908254;29;20887;-82
2023/06/03 10:44:42;;;;;;;17.03;16.33;;;22.30;99.90;;;;;;4908178;29;20477;-82
2023/06/03 10:47:17;;;;;;;17.57;16.53;;;22.30;99.90;;;;;;4908485;29;20489;-82
2023/06/03 10:49:49;;;;;;;17.23;16.13;;;22.30;99.90;;;;;;4908039;29;20466;-82
2023/06/03 10:52:39;;;;;;;17.03;16.33;;;22.30;99.90;;;;;;4910361;29;20505;-82
2023/06/03 10:55:21;;;;;;;17.73;16.70;;;22.30;99.90;;;;;;4901307;29;20484;-82
2023/06/03 10:57:57;;;;;;;17.60;16.40;;;22.40;99.90;;;;;;4920138;29;20484;-81
2023/06/03 11:00:55;;;;;;;16.67;15.87;;;22.40;99.90;;;;;;4907380;29;20461;-82
2023/06/03 11:03:25;;;;;;;17.20;16.20;;;22.40;99.90;;;;;;4906829;29;20491;-82
2023/06/03 11:05:55;;;;;;;16.20;15.60;;;22.40;99.90;;;;;;4908801;29;20454;-82
2023/06/03 11:08:58;;;;;;;16.70;15.83;;;22.40;99.90;;;;;;4908299;29;20457;-82
2023/06/03 11:12:03;;;;;;;16.93;16.10;;;22.50;99.90;;;;;;4907182;29;21390;-82
2023/06/03 11:14:57;;;;;;;16.10;15.23;;;22.60;99.90;;;;;;4908289;29;21101;-82
2023/06/03 11:17:28;;;;;;;16.57;15.77;;;22.60;99.90;;;;;;4908008;29;20476;-81
2023/06/03 11:19:59;;;;;;;17.60;16.80;;;22.70;99.90;;;;;;4899782;29;20475;-82
2023/06/03 11:22:46;;;;;;;16.83;15.93;;;22.70;99.90;;;;;;4907614;29;20530;-82
2023/06/03 11:25:30;;;;;;;17.17;16.23;;;22.80;99.90;;;;;;4909089;29;20453;-82
2023/06/03 11:28:34;;;;;;;16.57;15.77;;;22.70;99.90;;;;;;4907111;29;20993;-82
2023/06/03 11:31:05;;;;;;;16.60;15.87;;;22.60;99.90;;;;;;4907034;29;20480;-82
2023/06/03 11:33:34;;;;;;;16.80;15.77;;;22.60;99.90;;;;;;4902340;29;20497;-82
2023/06/03 11:36:39;;;;;;;16.50;15.50;;;22.70;99.90;;;;;;4908533;29;21115;-82
2023/06/03 11:39:08;;;;;;;17.73;16.73;;;22.60;99.90;;;;;;4904655;29;20477;-82
2023/06/03 11:42:05;;;;;;;17.47;16.27;;;22.60;99.90;;;;;;4908288;29;20465;-82
2023/06/03 11:44:34;;;;;;;17.17;16.17;;;22.60;99.90;;;;;;4903488;29;20521;-83
2023/06/03 11:47:04;;;;;;;17.10;16.20;;;22.60;99.90;;;;;;4903985;29;20521;-82
2023/06/03 11:49:37;;;;;;;16.63;15.73;;;22.60;99.90;;;;;;4921743;29;20461;-84
2023/06/03 11:52:07;;;;;;;15.70;14.90;;;22.70;99.90;;;;;;4907660;29;20549;-82
2023/06/03 11:54:38;;;;;;;16.90;15.80;;;22.80;99.90;;;;;;4906842;29;20510;-83
2023/06/03 11:57:08;;;;;;;15.90;15.10;;;22.70;99.90;;;;;;4906848;29;20462;-83
2023/06/03 11:59:41;;;;;;;17.97;16.67;;;22.80;99.90;;;;;;4898564;29;20458;-82
2023/06/03 12:02:10;;;;;;;17.10;15.57;;;22.80;99.90;;;;;;4905860;29;20478;-82
2023/06/03 12:04:39;;;;;;;18.63;17.17;;;22.80;99.90;;;;;;4907951;29;20571;-82
2023/06/03 12:07:11;;;;;;;16.53;15.63;;;22.90;99.90;;;;;;4922153;29;20495;-82
2023/06/03 12:09:41;;;;;;;16.47;15.60;;;23.00;99.90;;;;;;4905656;29;20462;-82
2023/06/03 12:12:13;;;;;;;16.70;15.70;;;23.00;99.90;;;;;;4907463;29;20458;-82
2023/06/03 12:14:44;;;;;;;16.50;15.60;;;23.00;99.90;;;;;;4897826;29;20791;-82
2023/06/03 12:17:13;;;;;;;15.67;14.97;;;23.00;99.90;;;;;;4905972;29;20580;-82
2023/06/03 12:19:43;;;;;;;16.77;16.00;;;23.00;99.90;;;;;;4906453;29;20438;-83
2023/06/03 12:22:12;;;;;;;17.60;16.73;;;23.00;99.90;;;;;;4908085;29;20465;-82
2023/06/03 12:24:43;;;;;;;17.23;16.33;;;23.10;99.90;;;;;;4922667;29;20487;-82
2023/06/03 12:27:21;;;;;;;16.73;15.93;;;23.10;99.90;;;;;;4908109;29;20457;-82
2023/06/03 12:29:53;;;;;;;15.87;14.87;;;23.30;99.90;;;;;;4908763;29;20450;-82
2023/06/03 12:32:21;;;;;;;16.80;15.80;;;23.20;99.90;;;;;;4907805;29;20862;-82
2023/06/03 12:34:51;;;;;;;15.73;14.93;;;23.10;99.90;;;;;;4908048;29;20470;-82
2023/06/03 12:37:30;;;;;;;15.27;14.47;;;23.10;99.90;;;;;;4906772;29;20466;-83
2023/06/03 12:39:59;;;;;;;15.73;14.93;;;23.10;99.90;;;;;;4905812;29;20500;-82
2023/06/03 12:42:46;;;;;;;16.30;15.20;;;23.10;99.90;;;;;;4905743;29;20457;-82
2023/06/03 12:45:24;;;;;;;16.60;15.50;;;23.10;99.90;;;;;;4908304;29;20468;-81
2023/06/03 12:47:54;;;;;;;16.70;15.90;;;23.10;99.90;;;;;;4904579;29;20470;-81
2023/06/03 12:50:22;;;;;;;15.77;14.77;;;23.10;99.90;;;;;;4909412;29;20995;-82
2023/06/03 12:52:51;;;;;;;15.53;14.83;;;23.10;99.90;;;;;;4906988;29;20454;-82